Time;durP1;ratioP1;P1;durP2;ratioP2;P2;SDS_P1;SDS_P2;PMS_P1;PMS_P2;Temp;Humidity;BMP_temperature;BMP_pressure;BME280_temperature;BME280_humidity;BME280_pressure;Samples;Min_cycle;Max_cycle;Signal;HPM_P1;HPM_P2
2023/06/02 00:00:39;;;;;;;22.33;10.10;;;;;;;21.61;100.00;100551.00;2099155;28;20135;-76
2023/06/02 00:02:03;;;;;;;23.17;10.63;;;;;;;21.61;100.00;100551.00;2091331;28;20064;-76
2023/06/02 00:03:30;;;;;;;20.75;10.75;;;;;;;21.60;100.00;100556.44;2080391;28;20064;-76
2023/06/02 00:04:53;;;;;;;20.40;10.60;;;;;;;21.59;100.00;100573.50;2078978;28;20046;-75
2023/06/02 00:06:14;;;;;;;25.35;11.40;;;;;;;21.58;100.00;100582.50;2094595;28;20044;-77
2023/06/02 00:07:38;;;;;;;20.75;11.00;;;;;;;21.57;100.00;100591.47;2083377;28;20061;-76
2023/06/02 00:09:03;;;;;;;26.80;10.73;;;;;;;21.54;100.00;100596.94;2077372;28;20057;-76
2023/06/02 00:10:25;;;;;;;29.42;10.65;;;;;;;21.53;100.00;100589.84;2100675;28;20044;-75
2023/06/02 00:11:47;;;;;;;30.50;11.63;;;;;;;21.50;100.00;100593.47;2091380;28;20118;-75
2023/06/02 00:13:08;;;;;;;29.42;11.38;;;;;;;21.45;100.00;100587.38;2103227;28;20099;-74
2023/06/02 00:14:33;;;;;;;34.17;12.38;;;;;;;21.36;100.00;100598.41;2082823;28;20410;-74
2023/06/02 00:15:54;;;;;;;28.63;11.65;;;;;;;21.26;100.00;100613.94;2067823;28;20140;-74
2023/06/02 00:17:18;;;;;;;26.63;11.55;;;;;;;21.17;100.00;100622.25;2090660;28;20171;-74
2023/06/02 00:18:43;;;;;;;32.53;12.40;;;;;;;21.11;100.00;100627.78;2090515;28;20048;-74
2023/06/02 00:20:05;;;;;;;25.77;12.25;;;;;;;21.09;100.00;100635.00;2072325;28;20045;-74
2023/06/02 00:21:28;;;;;;;24.45;12.23;;;;;;;21.07;100.00;100637.72;2075747;28;20144;-74
2023/06/02 00:22:51;;;;;;;27.98;12.02;;;;;;;21.04;100.00;100635.16;2086100;28;20106;-74
2023/06/02 00:24:13;;;;;;;22.42;11.15;;;;;;;21.00;100.00;100627.22;2072134;28;20042;-74
2023/06/02 00:25:35;;;;;;;23.67;12.15;;;;;;;20.97;100.00;100636.25;2091983;28;20390;-74
2023/06/02 00:26:58;;;;;;;30.77;13.60;;;;;;;20.92;100.00;100640.00;2083205;28;20115;-73
2023/06/02 00:28:19;;;;;;;31.67;13.02;;;;;;;20.87;100.00;100636.56;2082733;28;20123;-74
2023/06/02 00:29:44;;;;;;;24.48;12.75;;;;;;;20.83;100.00;100648.28;2077857;28;20557;-73
2023/06/02 00:31:06;;;;;;;43.95;15.13;;;;;;;20.79;100.00;100666.28;2100132;28;20152;-73
2023/06/02 00:32:27;;;;;;;41.80;13.55;;;;;;;20.68;100.00;100681.78;2091381;28;20079;-73
2023/06/02 00:33:51;;;;;;;41.53;13.73;;;;;;;20.54;100.00;100697.41;2077887;28;20053;-73
2023/06/02 00:35:12;;;;;;;43.85;14.55;;;;;;;20.38;100.00;100704.94;2086160;28;20087;-73
2023/06/02 00:36:35;;;;;;;36.63;15.43;;;;;;;20.22;100.00;100707.09;2080683;28;20037;-74
2023/06/02 00:37:56;;;;;;;35.92;14.23;;;;;;;20.14;100.00;100703.75;2075128;28;20045;-74
2023/06/02 00:39:19;;;;;;;34.05;13.50;;;;;;;20.06;100.00;100699.47;2091512;28;20040;-75
2023/06/02 00:40:40;;;;;;;39.90;15.15;;;;;;;20.04;100.00;100691.47;2080490;28;20463;-74
2023/06/02 00:42:04;;;;;;;31.15;13.85;;;;;;;20.03;100.00;100691.50;2081978;28;20057;-74
2023/06/02 00:43:27;;;;;;;30.45;12.05;;;;;;;20.03;100.00;100672.72;2077061;28;20107;-74
2023/06/02 00:44:50;;;;;;;30.55;12.45;;;;;;;20.04;100.00;100674.50;2075141;28;20049;-75
2023/06/02 00:46:12;;;;;;;26.33;12.30;;;;;;;20.02;100.00;100665.63;2077151;28;20057;-75
2023/06/02 00:47:34;;;;;;;30.17;12.55;;;;;;;20.02;100.00;100665.63;2077203;28;20157;-75
2023/06/02 00:48:56;;;;;;;;;;;;;;;20.03;100.00;100664.69;2078444;28;20049;-75
2023/06/02 00:50:18;;;;;;;32.08;12.00;;;;;;;20.06;100.00;100675.34;2081710;28;19935;-75
2023/06/02 00:51:45;;;;;;;37.30;12.88;;;;;;;20.06;100.00;100695.00;2076986;28;20041;-75
2023/06/02 00:53:07;;;;;;;36.03;11.93;;;;;;;20.06;100.00;100703.03;2084463;28;20060;-74
2023/06/02 00:54:30;;;;;;;34.78;11.85;;;;;;;20.03;100.00;100713.81;2069107;28;20104;-74
2023/06/02 00:55:53;;;;;;;32.22;12.55;;;;;;;19.96;100.00;100708.63;2074545;28;20121;-74
2023/06/02 00:57:15;;;;;;;40.33;13.85;;;;;;;19.90;100.00;100713.22;2090052;28;20523;-74
2023/06/02 00:58:38;;;;;;;38.03;13.40;;;;;;;19.87;100.00;100709.75;2080365;28;20053;-75
2023/06/02 01:00:03;;;;;;;30.55;11.55;;;;;;;19.82;100.00;100699.13;2082685;28;20044;-74
2023/06/02 01:01:25;;;;;;;36.40;11.50;;;;;;;19.74;100.00;100690.41;2077824;28;20077;-74
2023/06/02 01:02:47;;;;;;;26.80;10.40;;;;;;;19.66;100.00;100691.50;2080802;28;20045;-75
2023/06/02 01:04:09;;;;;;;32.08;12.07;;;;;;;19.61;100.00;100688.03;2075650;28;20508;-74
2023/06/02 01:05:33;;;;;;;24.17;10.98;;;;;;;19.58;100.00;100680.94;2082375;28;20128;-74
2023/06/02 01:07:00;;;;;;;27.25;9.43;;;;;;;19.56;100.00;100685.44;2085779;28;20107;-74
2023/06/02 01:08:23;;;;;;;29.45;9.75;;;;;;;19.49;100.00;100699.91;2079180;28;20037;-74
2023/06/02 01:09:45;;;;;;;21.42;7.72;;;;;;;19.40;100.00;100708.97;2072203;28;20107;-74
2023/06/02 01:11:09;;;;;;;24.88;8.95;;;;;;;19.27;100.00;100722.66;2073917;28;20094;-74
2023/06/02 01:12:32;;;;;;;20.40;9.02;;;;;;;19.18;100.00;100749.59;2077857;28;20053;-74
2023/06/02 01:13:55;;;;;;;26.60;9.30;;;;;;;19.16;100.00;100756.81;2069537;28;20049;-75
2023/06/02 01:15:18;;;;;;;22.67;9.13;;;;;;;19.17;100.00;100782.63;2067090;28;20052;-74
2023/06/02 01:16:44;;;;;;;20.45;8.30;;;;;;;19.14;100.00;100806.78;2083062;28;20163;-75
2023/06/02 01:18:10;;;;;;;25.98;8.93;;;;;;;19.13;100.00;100829.09;2080308;28;20417;-75
2023/06/02 01:19:31;;;;;;;22.25;8.77;;;;;;;19.10;100.00;100838.94;2077846;28;20049;-74
2023/06/02 01:20:57;;;;;;;21.48;8.55;;;;;;;19.09;100.00;100830.97;2093469;28;20139;-75
2023/06/02 01:22:23;;;;;;;22.63;9.02;;;;;;;19.08;100.00;100835.44;2079745;28;20037;-74
2023/06/02 01:23:49;;;;;;;32.70;9.38;;;;;;;19.06;100.00;100821.19;2094784;28;20547;-75
2023/06/02 01:25:21;;;;;;;21.88;7.55;;;;;;;19.05;100.00;100816.75;2082002;28;20102;-75
2023/06/02 01:26:43;;;;;;;23.50;9.30;;;;;;;19.06;100.00;100817.63;2084768;28;20055;-74
2023/06/02 01:28:07;;;;;;;21.60;8.73;;;;;;;19.01;100.00;100801.66;2078050;28;20053;-75
2023/06/02 01:29:35;;;;;;;20.45;8.52;;;;;;;19.05;100.00;100808.72;2099583;28;20043;-75
2023/06/02 01:31:04;;;;;;;20.80;8.73;;;;;;;19.07;100.00;100814.03;2073806;28;20045;-74
2023/06/02 01:32:31;;;;;;;22.85;7.85;;;;;;;19.03;100.00;100831.94;2074222;28;20072;-74
2023/06/02 01:34:00;;;;;;;21.08;8.13;;;;;;;19.02;100.00;100835.53;2100149;28;20070;-73
2023/06/02 01:35:27;;;;;;;23.67;9.00;;;;;;;18.97;100.00;100842.75;2090011;28;20410;-74
2023/06/02 01:36:55;;;;;;;20.67;8.18;;;;;;;18.92;100.00;100841.06;2094703;28;20525;-74
2023/06/02 01:38:19;;;;;;;22.55;8.68;;;;;;;18.89;100.00;100831.31;2088194;28;20411;-74
2023/06/02 01:39:45;;;;;;;18.52;8.10;;;;;;;18.88;100.00;100816.19;2093832;28;20585;-74
2023/06/02 01:41:08;;;;;;;21.35;8.15;;;;;;;18.86;100.00;100801.94;2079907;28;20042;-74
2023/06/02 01:42:31;;;;;;;32.83;10.07;;;;;;;18.79;100.00;100799.38;2075303;28;20046;-74
2023/06/02 01:43:56;;;;;;;27.70;9.40;;;;;;;18.71;100.00;100800.41;2085376;28;20126;-74
2023/06/02 01:45:18;;;;;;;27.95;10.32;;;;;;;18.65;100.00;100799.63;2078002;28;20038;-75
2023/06/02 01:46:41;;;;;;;26.65;10.55;;;;;;;18.63;100.00;100810.38;2077196;28;20409;-75
2023/06/02 01:48:05;;;;;;;21.52;9.02;;;;;;;18.65;100.00;100818.34;2066349;28;20049;-75
2023/06/02 01:49:26;;;;;;;24.52;10.18;;;;;;;18.65;100.00;100813.88;2083405;28;20051;-75
2023/06/02 01:50:49;;;;;;;28.55;9.88;;;;;;;18.65;100.00;100810.31;2079949;28;20405;-75
2023/06/02 01:52:10;;;;;;;24.30;9.25;;;;;;;18.64;100.00;100795.22;2080536;28;20098;-75
2023/06/02 01:53:33;;;;;;;21.98;9.50;;;;;;;18.63;100.00;100783.63;2077459;28;20564;-75
2023/06/02 01:54:56;;;;;;;23.42;8.85;;;;;;;18.62;100.00;100770.28;2077209;28;20732;-76
2023/06/02 01:56:18;;;;;;;24.27;8.48;;;;;;;18.62;100.00;100763.13;2073782;28;20573;-75
2023/06/02 01:57:39;;;;;;;21.35;10.18;;;;;;;18.58;100.00;100755.16;2066884;28;20073;-76
2023/06/02 01:59:02;;;;;;;27.15;10.13;;;;;;;18.58;100.00;100760.53;2076734;28;20053;-75
2023/06/02 02:00:23;;;;;;;25.27;10.10;;;;;;;18.58;100.00;100760.53;2081957;28;20183;-76
2023/06/02 02:01:46;;;;;;;23.15;9.18;;;;;;;18.56;100.00;100752.56;2084053;28;20060;-75
2023/06/02 02:03:08;;;;;;;21.45;8.95;;;;;;;18.56;100.00;100740.97;2091555;28;20158;-76
2023/06/02 02:04:29;;;;;;;27.33;9.43;;;;;;;18.55;100.00;100725.78;2084610;28;20049;-76
2023/06/02 02:05:52;;;;;;;17.95;9.05;;;;;;;18.54;100.00;100699.97;2085488;28;20053;-76
2023/06/02 02:07:13;;;;;;;20.60;9.65;;;;;;;18.55;100.00;100685.69;2084563;28;20467;-76
2023/06/02 02:08:36;;;;;;;28.35;10.70;;;;;;;18.56;100.00;100668.78;2088176;28;20037;-74
2023/06/02 02:09:59;;;;;;;27.00;11.13;;;;;;;18.55;100.00;100657.19;2085437;28;20101;-75
2023/06/02 02:11:21;;;;;;;33.28;11.88;;;;;;;18.55;100.00;100651.84;2083400;28;20041;-75
2023/06/02 02:12:44;;;;;;;32.58;12.35;;;;;;;18.56;100.00;100647.38;2094342;28;20052;-75
2023/06/02 02:14:05;;;;;;;39.53;13.52;;;;;;;18.57;100.00;100633.13;2068020;28;20453;-75
2023/06/02 02:15:28;;;;;;;32.47;14.13;;;;;;;18.61;100.00;100638.38;2080147;28;20044;-75
2023/06/02 02:16:51;;;;;;;42.83;15.32;;;;;;;18.62;100.00;100641.91;2077495;28;20053;-75
2023/06/02 02:18:15;;;;;;;38.22;15.55;;;;;;;18.65;100.00;100642.72;2075665;28;20042;-75
2023/06/02 02:19:37;;;;;;;44.40;15.13;;;;;;;18.72;100.00;100651.50;2076745;28;20057;-74
2023/06/02 02:20:59;;;;;;;41.63;15.00;;;;;;;18.74;100.00;100647.03;2068321;28;20089;-75
2023/06/02 02:22:21;;;;;;;41.67;17.73;;;;;;;18.75;100.00;100655.94;2084515;28;20432;-74
2023/06/02 02:23:43;;;;;;;38.88;15.05;;;;;;;18.74;100.00;100656.84;2073707;28;20076;-74
2023/06/02 02:25:09;;;;;;;32.42;13.85;;;;;;;18.74;100.00;100679.13;2087244;28;20079;-75
2023/06/02 02:26:31;;;;;;;35.30;14.20;;;;;;;18.71;100.00;100711.25;2078498;28;20181;-74
2023/06/02 02:27:52;;;;;;;40.95;13.20;;;;;;;18.67;100.00;100725.59;2075286;28;20200;-74
2023/06/02 02:29:15;;;;;;;37.72;14.60;;;;;;;18.66;100.00;100745.22;2076306;28;20643;-74
2023/06/02 02:30:37;;;;;;;31.65;13.88;;;;;;;18.67;100.00;100763.94;2092005;28;20475;-74
2023/06/02 02:32:00;;;;;;;37.65;14.45;;;;;;;18.69;100.00;100770.16;2079966;28;20049;-74
2023/06/02 02:33:22;;;;;;;29.98;13.15;;;;;;;18.72;100.00;100779.88;2076524;28;20111;-75
2023/06/02 02:34:46;;;;;;;35.33;14.27;;;;;;;18.73;100.00;100787.00;2075960;28;20560;-75
2023/06/02 02:36:11;;;;;;;39.53;12.52;;;;;;;18.74;100.00;100795.91;2085222;28;20123;-75
2023/06/02 02:37:35;;;;;;;34.75;13.38;;;;;;;18.73;100.00;100778.09;2078299;28;20049;-75
2023/06/02 02:38:57;;;;;;;29.08;11.68;;;;;;;18.75;100.00;100765.59;2093136;28;20052;-75
2023/06/02 02:40:21;;;;;;;31.73;12.18;;;;;;;18.76;100.00;100740.63;2088926;28;20040;-75
2023/06/02 02:41:42;;;;;;;35.97;12.32;;;;;;;18.75;100.00;100723.69;2094400;28;20060;-75
2023/06/02 02:43:05;;;;;;;32.65;12.00;;;;;;;18.73;100.00;100716.59;2079653;28;20049;-74
2023/06/02 02:44:26;;;;;;;30.73;12.15;;;;;;;18.70;100.00;100709.53;2074691;28;20078;-74
2023/06/02 02:45:50;;;;;;;30.98;11.13;;;;;;;18.68;100.00;100716.69;2075930;28;20498;-74
2023/06/02 02:47:14;;;;;;;30.33;12.73;;;;;;;18.68;100.00;100719.34;2083487;28;20524;-75
2023/06/02 02:48:35;;;;;;;29.30;12.00;;;;;;;18.70;100.00;100721.09;2078753;28;20102;-75
2023/06/02 02:49:59;;;;;;;26.35;11.00;;;;;;;18.72;100.00;100723.72;2077717;28;20069;-74
2023/06/02 02:51:21;;;;;;;32.58;12.55;;;;;;;18.77;100.00;100726.34;2080714;28;20087;-76
2023/06/02 02:52:44;;;;;;;25.05;11.90;;;;;;;18.80;100.00;100726.25;2075617;28;20147;-74
2023/06/02 02:54:07;;;;;;;27.65;11.27;;;;;;;18.80;100.00;100726.25;2075951;28;20045;-75
2023/06/02 02:55:32;;;;;;;23.73;10.07;;;;;;;18.73;100.00;100720.13;2068801;28;20057;-75
2023/06/02 02:56:54;;;;;;;25.25;10.25;;;;;;;18.70;100.00;100736.25;2078751;28;20077;-75
2023/06/02 02:58:18;;;;;;;27.10;11.98;;;;;;;18.70;100.00;100757.66;2075801;28;20140;-75
2023/06/02 02:59:39;;;;;;;27.92;11.25;;;;;;;18.71;100.00;100775.44;2075645;28;20049;-75
2023/06/02 03:01:04;;;;;;;22.30;10.38;;;;;;;18.75;100.00;100803.03;2077750;28;20640;-75
2023/06/02 03:02:27;;;;;;;19.60;10.15;;;;;;;18.75;100.00;100822.66;2084222;28;20620;-76
2023/06/02 03:03:49;;;;;;;20.75;9.68;;;;;;;18.69;100.00;100834.34;2077689;28;20046;-75
2023/06/02 03:05:13;;;;;;;;;;;;;;;18.63;100.00;100821.06;2076270;28;20054;-75
2023/06/02 03:06:40;;;;;;;24.20;10.52;;;;;;;18.62;100.00;100794.34;2092512;28;20014;-76
2023/06/02 03:08:04;;;;;;;25.67;10.85;;;;;;;18.63;100.00;100756.88;2080644;28;20810;-75
2023/06/02 03:09:27;;;;;;;24.48;10.63;;;;;;;18.68;100.00;100716.69;2091270;28;20160;-75
2023/06/02 03:10:53;;;;;;;35.30;12.00;;;;;;;18.71;100.00;100695.22;2080140;28;20045;-75
2023/06/02 03:12:16;;;;;;;22.63;9.20;;;;;;;18.70;100.00;100689.00;2074919;28;20048;-75
2023/06/02 03:13:37;;;;;;;18.15;9.73;;;;;;;18.66;100.00;100681.94;2092104;28;20417;-75
2023/06/02 03:15:01;;;;;;;20.73;9.30;;;;;;;18.65;100.00;100704.22;2078495;28;20054;-75
2023/06/02 03:16:23;;;;;;;18.98;9.25;;;;;;;18.66;100.00;100729.19;2084616;28;20045;-75
2023/06/02 03:17:45;;;;;;;20.55;7.85;;;;;;;18.67;100.00;100752.34;2089766;28;20056;-75
2023/06/02 03:19:07;;;;;;;17.40;8.70;;;;;;;18.71;100.00;100770.97;2080720;28;20046;-76
2023/06/02 03:20:29;;;;;;;21.20;8.57;;;;;;;18.73;100.00;100773.63;2095783;28;20055;-75
2023/06/02 03:21:51;;;;;;;27.80;9.15;;;;;;;18.75;100.00;100776.28;2082413;28;20080;-74
2023/06/02 03:23:15;;;;;;;44.40;11.25;;;;;;;18.73;100.00;100778.97;2076377;28;20530;-74
2023/06/02 03:24:38;;;;;;;23.60;9.27;;;;;;;18.67;100.00;100776.41;2074999;28;20056;-75
2023/06/02 03:26:02;;;;;;;29.33;10.75;;;;;;;18.61;100.00;100773.84;2088411;28;20048;-75
2023/06/02 03:27:25;;;;;;;31.65;11.10;;;;;;;18.57;100.00;100754.31;2079852;28;20154;-75
2023/06/02 03:28:49;;;;;;;25.65;10.77;;;;;;;18.58;100.00;100752.50;2084193;28;20586;-75
2023/06/02 03:30:13;;;;;;;23.95;11.40;;;;;;;18.57;100.00;100742.75;2085018;28;20048;-75
2023/06/02 03:31:34;;;;;;;27.90;10.52;;;;;;;18.58;100.00;100742.69;2077854;28;20053;-75
2023/06/02 03:32:57;;;;;;;38.20;11.65;;;;;;;18.55;100.00;100734.72;2074954;28;20723;-75
2023/06/02 03:34:20;;;;;;;28.35;11.45;;;;;;;18.53;100.00;100733.84;2074976;28;20041;-74
2023/06/02 03:35:42;;;;;;;30.42;11.40;;;;;;;18.50;100.00;100730.34;2070068;28;20061;-75
2023/06/02 03:37:05;;;;;;;26.23;11.43;;;;;;;18.49;100.00;100721.44;2075263;28;20053;-75
2023/06/02 03:38:28;;;;;;;21.95;9.60;;;;;;;18.52;100.00;100709.78;2078385;28;20037;-74
2023/06/02 03:39:50;;;;;;;27.55;9.95;;;;;;;18.50;100.00;100693.81;2068622;28;20050;-74
2023/06/02 03:41:14;;;;;;;23.95;9.95;;;;;;;18.42;100.00;100687.69;2091648;28;20044;-74
2023/06/02 03:42:37;;;;;;;27.10;10.05;;;;;;;18.33;100.00;100669.16;2079758;28;20057;-75
2023/06/02 03:44:02;;;;;;;27.55;11.38;;;;;;;18.25;100.00;100673.72;2075406;28;20084;-75
2023/06/02 03:45:25;;;;;;;23.30;9.30;;;;;;;18.17;100.00;100665.00;2069571;28;20045;-75
2023/06/02 06:33:26;;;;;;;17.02;6.22;;;;;;;19.99;100.00;100837.22;2106872;27;20962;-81
2023/06/02 06:34:47;;;;;;;17.92;6.00;;;;;;;20.20;100.00;100832.28;2102570;28;20048;-80
2023/06/02 06:36:13;;;;;;;13.45;6.20;;;;;;;20.39;100.00;100834.56;2092545;28;20413;-81
2023/06/02 06:37:36;;;;;;;18.95;6.55;;;;;;;20.47;100.00;100838.81;2098888;28;20074;-80
2023/06/02 06:38:58;;;;;;;14.75;5.40;;;;;;;20.51;100.00;100837.81;2084669;28;20076;-82
2023/06/02 06:40:21;;;;;;;16.65;5.93;;;;;;;20.58;100.00;100834.06;2098337;28;20070;-81
2023/06/02 06:41:43;;;;;;;15.27;5.28;;;;;;;20.70;100.00;100835.56;2084403;28;20048;-82
2023/06/02 06:43:17;;;;;;;14.43;4.80;;;;;;;20.94;100.00;100834.94;2085105;28;20041;-82
2023/06/02 06:44:43;;;;;;;13.43;5.32;;;;;;;21.08;100.00;100835.47;2085153;28;20612;-78
2023/06/02 06:46:05;;;;;;;12.52;5.15;;;;;;;21.13;100.00;100838.06;2089694;28;20048;-79
2023/06/02 06:47:27;;;;;;;15.13;5.13;;;;;;;21.17;100.00;100845.13;2097602;28;20044;-79
2023/06/02 06:48:52;;;;;;;17.05;5.32;;;;;;;21.15;100.00;100833.50;2092634;28;20090;-79
2023/06/02 06:50:15;;;;;;;14.68;5.38;;;;;;;21.12;100.00;100835.41;2087934;28;20097;-78
2023/06/02 06:51:37;;;;;;;16.35;5.03;;;;;;;21.10;100.00;100835.44;2091905;28;20072;-79
2023/06/02 06:53:03;;;;;;;14.27;5.70;;;;;;;21.13;100.00;100837.16;2078791;28;20050;-77
2023/06/02 06:54:25;;;;;;;17.63;5.45;;;;;;;21.15;100.00;100843.34;2097203;28;20647;-78
2023/06/02 06:55:48;;;;;;;14.85;5.28;;;;;;;21.13;100.00;100846.09;2098423;28;20049;-78
2023/06/02 06:57:12;;;;;;;18.33;5.55;;;;;;;21.14;100.00;100845.16;2097232;28;20049;-78
2023/06/02 06:58:33;;;;;;;14.90;5.43;;;;;;;21.17;100.00;100846.94;2095805;28;20384;-79
2023/06/02 06:59:56;;;;;;;16.77;5.60;;;;;;;21.16;100.00;100851.41;2085849;28;20048;-78
2023/06/02 07:01:19;;;;;;;19.55;5.70;;;;;;;21.14;100.00;100846.97;2091605;28;20165;-78
2023/06/02 07:02:43;;;;;;;18.88;5.78;;;;;;;21.10;100.00;100843.50;2087397;28;20063;-77
2023/06/02 07:04:07;;;;;;;20.13;6.13;;;;;;;21.09;100.00;100844.41;2091983;28;20111;-78
2023/06/02 07:05:30;;;;;;;16.45;5.38;;;;;;;21.08;100.00;100834.59;2088383;28;20415;-78
2023/06/02 07:06:53;;;;;;;14.80;5.10;;;;;;;21.09;100.00;100836.34;2096860;28;20039;-78
2023/06/02 07:08:16;;;;;;;17.63;5.63;;;;;;;21.11;100.00;100833.63;2092928;28;20049;-79
2023/06/02 07:09:38;;;;;;;19.27;5.95;;;;;;;21.06;100.00;100831.06;2091969;28;20044;-78
2023/06/02 07:11:01;;;;;;;13.63;5.10;;;;;;;21.04;100.00;100830.22;2091339;28;20053;-78
2023/06/02 07:12:23;;;;;;;15.18;5.28;;;;;;;21.05;100.00;100823.94;2084390;28;20429;-79
2023/06/02 07:13:46;;;;;;;17.10;5.95;;;;;;;21.06;100.00;100821.22;2090206;28;20049;-78
2023/06/02 07:15:09;;;;;;;20.17;5.20;;;;;;;21.06;100.00;100826.59;2100326;28;20472;-79
2023/06/02 07:16:31;;;;;;;15.02;5.20;;;;;;;21.11;100.00;100826.47;2101101;28;20048;-78
2023/06/02 07:17:54;;;;;;;19.58;5.50;;;;;;;21.16;100.00;100829.94;2091588;28;20544;-78
2023/06/02 07:19:18;;;;;;;15.38;5.30;;;;;;;21.23;100.00;100833.34;2084887;28;20056;-78
2023/06/02 07:20:40;;;;;;;14.27;5.57;;;;;;;21.29;100.00;100828.69;2089578;28;20040;-78
2023/06/02 07:22:03;;;;;;;13.65;4.88;;;;;;;21.30;100.00;100830.44;2091828;28;20094;-78
2023/06/02 07:23:26;;;;;;;13.18;5.18;;;;;;;21.30;100.00;100825.06;2097680;28;20877;-78
2023/06/02 07:24:49;;;;;;;15.05;5.32;;;;;;;21.31;100.00;100826.84;2091959;28;20509;-78
2023/06/02 07:26:12;;;;;;;14.98;5.20;;;;;;;21.32;100.00;100825.03;2088366;28;20382;-78
2023/06/02 07:27:35;;;;;;;15.30;5.55;;;;;;;21.36;100.00;100829.38;2089643;28;20764;-78
2023/06/02 07:28:57;;;;;;;15.93;5.32;;;;;;;21.42;100.00;100819.34;2089281;28;20045;-77
2023/06/02 07:30:20;;;;;;;15.75;5.38;;;;;;;21.53;100.00;100823.56;2083852;28;20045;-78
2023/06/02 07:31:43;;;;;;;14.77;5.35;;;;;;;21.64;100.00;100816.94;2081449;28;20079;-78
2023/06/02 07:33:06;;;;;;;18.05;5.25;;;;;;;21.74;100.00;100815.75;2103648;28;20051;-78
2023/06/02 07:34:30;;;;;;;13.13;5.00;;;;;;;21.81;100.00;100817.31;2094964;28;20040;-78
2023/06/02 07:35:52;;;;;;;15.85;5.13;;;;;;;21.82;100.00;100816.41;2098212;28;20275;-77
2023/06/02 07:37:15;;;;;;;19.42;5.45;;;;;;;21.75;100.00;100813.94;2100727;28;20847;-78
2023/06/02 07:38:37;;;;;;;19.60;5.43;;;;;;;21.71;100.00;100806.91;2092374;28;20055;-78
2023/06/02 07:40:01;;;;;;;16.17;6.72;;;;;;;21.65;100.00;100796.34;2081829;28;20094;-78
2023/06/02 07:41:23;;;;;;;14.85;5.75;;;;;;;21.60;100.00;100799.13;2085756;28;20051;-78
2023/06/02 07:42:46;;;;;;;17.58;6.43;;;;;;;21.59;100.00;100791.16;2089414;28;20052;-79
2023/06/02 07:44:08;;;;;;;17.88;6.13;;;;;;;21.60;100.00;100788.38;2098528;28;20052;-78
2023/06/02 07:45:29;;;;;;;14.40;5.80;;;;;;;21.61;100.00;100792.84;2081155;28;20041;-78
2023/06/02 07:46:52;;;;;;;13.95;4.93;;;;;;;21.62;100.00;100793.72;2084310;28;20052;-78
2023/06/02 07:48:14;;;;;;;15.48;5.45;;;;;;;21.66;100.00;100788.19;2086494;28;20093;-78
2023/06/02 07:49:38;;;;;;;17.23;6.03;;;;;;;21.72;100.00;100787.16;2078260;28;20083;-79
2023/06/02 07:51:01;;;;;;;16.75;5.32;;;;;;;21.73;100.00;100786.22;2078865;28;20053;-77
2023/06/02 07:52:23;;;;;;;14.82;5.68;;;;;;;21.73;100.00;100787.09;2084111;28;20056;-80
2023/06/02 07:53:46;;;;;;;16.55;5.82;;;;;;;21.75;100.00;100787.94;2086477;28;20045;-79
2023/06/02 07:55:09;;;;;;;12.45;5.60;;;;;;;21.75;100.00;100777.19;2083019;28;20053;-80
2023/06/02 07:56:32;;;;;;;15.75;5.20;;;;;;;21.74;100.00;100771.84;2091481;28;20619;-79
2023/06/02 07:57:55;;;;;;;15.32;5.38;;;;;;;21.74;100.00;100767.38;2092342;28;20079;-79
2023/06/02 07:59:18;;;;;;;10.90;5.05;;;;;;;21.77;100.00;100761.03;2092609;28;20044;-79
2023/06/02 08:00:41;;;;;;;14.98;5.25;;;;;;;21.76;100.00;100752.06;2084193;28;20124;-77
2023/06/02 08:02:04;;;;;;;14.60;5.38;;;;;;;21.76;100.00;100759.25;2089687;28;20104;-77
2023/06/02 08:03:27;;;;;;;14.75;5.95;;;;;;;21.75;100.00;100757.50;2092657;28;20055;-77
2023/06/02 08:04:51;;;;;;;15.13;5.60;;;;;;;21.75;100.00;100769.13;2091915;28;20045;-77
2023/06/02 08:06:14;;;;;;;15.55;6.05;;;;;;;21.77;100.00;100769.97;2091621;28;20048;-77
2023/06/02 08:07:37;;;;;;;14.70;5.68;;;;;;;21.80;100.00;100766.28;2088974;28;20044;-77
2023/06/02 08:09:00;;;;;;;15.07;6.07;;;;;;;21.81;100.00;100760.00;2089094;28;20072;-77
2023/06/02 08:10:23;;;;;;;16.25;5.25;;;;;;;21.78;100.00;100752.94;2086464;28;20048;-77
2023/06/02 08:11:46;;;;;;;12.38;5.13;;;;;;;21.76;100.00;100762.84;2094857;28;20405;-77
2023/06/02 08:13:08;;;;;;;18.08;4.97;;;;;;;21.73;100.00;100762.03;2091487;28;20102;-76
2023/06/02 08:14:31;;;;;;;14.73;5.65;;;;;;;21.72;100.00;100766.56;2093578;28;20044;-76
2023/06/02 08:15:54;;;;;;;15.57;6.10;;;;;;;21.71;100.00;100763.91;2096831;28;20067;-77
2023/06/02 08:17:16;;;;;;;13.70;5.07;;;;;;;21.71;100.00;100771.97;2094523;28;20118;-77
2023/06/02 08:18:38;;;;;;;17.30;6.07;;;;;;;21.73;100.00;100764.72;2094779;28;20562;-76
2023/06/02 08:20:04;;;;;;;14.30;5.72;;;;;;;21.74;100.00;100769.16;2094782;28;20045;-77
2023/06/02 08:21:26;;;;;;;14.73;5.47;;;;;;;21.74;100.00;100775.44;2086264;28;20072;-77
2023/06/02 08:22:49;;;;;;;17.60;6.28;;;;;;;21.74;100.00;100782.59;2092091;28;20524;-77
2023/06/02 08:24:11;;;;;;;12.93;6.03;;;;;;;21.72;100.00;100774.63;2086235;28;20055;-77
2023/06/02 08:25:37;;;;;;;16.48;5.97;;;;;;;21.71;100.00;100775.53;2092298;28;20044;-77
2023/06/02 08:27:00;;;;;;;21.58;6.10;;;;;;;21.71;100.00;100771.97;2082197;28;20041;-77
2023/06/02 08:28:25;;;;;;;14.63;6.57;;;;;;;21.71;100.00;100766.59;2090078;28;20053;-77
2023/06/02 08:29:49;;;;;;;16.95;6.32;;;;;;;21.73;100.00;100780.84;2086355;28;20184;-77
2023/06/02 08:31:12;;;;;;;16.23;5.78;;;;;;;21.73;100.00;100776.34;2100222;28;20722;-76
2023/06/02 08:32:35;;;;;;;15.85;5.30;;;;;;;21.75;100.00;100784.38;2098160;28;20488;-77
2023/06/02 08:33:57;;;;;;;16.52;5.68;;;;;;;21.77;100.00;100782.53;2094766;28;20452;-77
2023/06/02 08:35:21;;;;;;;16.33;6.07;;;;;;;21.79;100.00;100786.91;2089154;28;20285;-76
2023/06/02 08:36:43;;;;;;;13.05;5.22;;;;;;;21.77;100.00;100790.59;2100217;28;20504;-77
2023/06/02 08:38:07;;;;;;;17.88;5.50;;;;;;;21.75;100.00;100797.81;2093998;28;20543;-77
2023/06/02 08:39:29;;;;;;;18.15;5.68;;;;;;;21.67;100.00;100792.66;2097472;28;20044;-77
2023/06/02 08:40:52;;;;;;;13.07;5.30;;;;;;;21.63;100.00;100792.81;2084605;28;20068;-77
2023/06/02 08:42:15;;;;;;;16.25;5.93;;;;;;;21.62;100.00;100789.22;2078436;28;20456;-77
2023/06/02 08:43:38;;;;;;;17.13;6.10;;;;;;;21.64;100.00;100787.38;2081594;28;20044;-77
2023/06/02 08:45:00;;;;;;;18.48;5.57;;;;;;;21.67;100.00;100786.41;2090444;28;20587;-77
2023/06/02 08:46:22;;;;;;;17.80;6.45;;;;;;;21.67;100.00;100781.91;2093609;28;20481;-77
2023/06/02 08:47:46;;;;;;;14.27;5.55;;;;;;;21.65;100.00;100780.22;2094807;28;20048;-77
2023/06/02 08:49:14;;;;;;;14.30;5.15;;;;;;;21.63;100.00;100782.94;2094095;28;20056;-78
2023/06/02 08:50:42;;;;;;;12.77;5.85;;;;;;;21.61;100.00;100782.09;2085560;28;20049;-76
2023/06/02 08:52:11;;;;;;;13.57;5.80;;;;;;;21.60;100.00;100782.13;2088882;28;20066;-76
2023/06/02 08:53:36;;;;;;;16.67;5.72;;;;;;;21.62;100.00;100791.03;2085344;28;20041;-76
2023/06/02 08:54:59;;;;;;;16.00;5.28;;;;;;;21.60;100.00;100792.88;2077384;28;20071;-77
2023/06/02 08:56:21;;;;;;;12.18;5.70;;;;;;;21.60;100.00;100792.88;2081831;28;20061;-77
2023/06/02 08:57:43;;;;;;;14.10;5.90;;;;;;;21.63;100.00;100784.75;2081811;28;20048;-77
2023/06/02 08:59:06;;;;;;;15.55;5.10;;;;;;;21.67;100.00;100781.03;2085984;28;20040;-77
2023/06/02 09:00:28;;;;;;;16.95;5.57;;;;;;;21.70;100.00;100781.84;2091319;28;20679;-78
2023/06/02 09:11:33;;;;;;;13.70;5.95;;;;;;;21.56;100.00;100804.66;21357869;27;20149;-77
2023/06/02 09:22:05;;;;;;;19.73;5.40;;;;;;;21.57;100.00;100839.53;21350657;27;20475;-77